LDDULYBE

Guest
Details From LDDU - DUBROVNIK
To LYBE - Belgrade
Flight Number -
Tags generated
Created
Modified
Stats Distance 162 nm / 300 km
Max Altitude 19,700 ft / 6,005 m
Waypoints 3
Social Downloads 2
Likes 0
Share VATSIM

Download

Looking for another format? Having issues loading an existing format? Contact us
Advertisement - Login to hide

Notes

Basic altitude profile: - Ascent Rate: 2500ft/min - Ascent Speed: 250kts - Cruise Altitude: 35000ft - Cruise Speed: 420kts - Descent Rate: 1500ft/min - Descent Speed: 250kts Options: - Use NATs: yes - Use PACOTS: yes - Use low airways: yes - Use high airways: yes

Route

LDDU PODOB LYBE

ID Type Via Altitude Latitude Longitude Leg Dist Tot Dist Heading (true) Name
O LDDU APT - 0 ft / 0 m 42.56284˚ 18.26450˚ - 0 nm - DUBROVNIK
PODOB FIX - 19,700 ft / 6,005 m 43.53167˚ 19.14444˚ 69 nm 69 nm 33° / 34° -
O LYBE APT - 0 ft / 0 m 44.81843˚ 20.30921˚ 92 nm 161 nm 33° / 33° Belgrade

Altitude Profile

Advertisement - Login to hide

LDDU

Details ICAO LDDU (DBV)
Name DUBROVNIK
Region Croatia
Timezone Europe/Zagreb (UTC+2.0)
Stats Elevation 527 ft / 161 m (AMSL)
Location 42.562840° 18.264499°
Runways 1
Magnetic Variation 4.146° E

METAR

LDDU 250530Z 04007KT 010V080 CAVOK 22/12 Q1014 NOSIG

Decode

TAF

TAF LDDU 242325Z 2500/2600 08007KT CAVOK TX25/2511Z TN18/2504Z BECMG 2507/2509 21007KT PROB30 TEMPO 2511/2517 TS FEW030CB BECMG 2512/2514 30010KT BECMG 2519/2521 08007KT

Decode

Departure Runways

ID Width Length Bearing (true) Bearing (mag) Surface Threshold Offset Overrun Length
12 148 ft / 45 m 10,803 ft / 3,293 m 118.30° 114.15° Asphalt 488 ft / 149 m 100 ft / 30 m
30 148 ft / 45 m 10,803 ft / 3,293 m 298.33° 294.18° Asphalt 0 ft / 0 m 100 ft / 30 m

LYBE

Details ICAO LYBE (BEG)
Name Belgrade
Region Serbia and Montenegro
Timezone Europe/Belgrade (UTC+2.0)
Stats Elevation 335 ft / 102 m (AMSL)
Location 44.818429° 20.309211°
Runways 1
Magnetic Variation 4.720° E

METAR

LYBE 250530Z 19005KT 160V220 8000 NSC 19/16 Q1016 NOSIG

Decode

TAF

TAF LYBE 242300Z 2500/2524 VRB02KT CAVOK TX27/2513Z TN15/2503Z TEMPO 2503/2505 5000 BR PROB40 TEMPO 2509/2515 4000 TSRA SCT030CB BKN033

Decode

Destination Runways

ID Width Length Bearing (true) Bearing (mag) Surface Threshold Offset Overrun Length
12 148 ft / 45 m 11,138 ft / 3,395 m 122.00° 117.28° Asphalt 1,000 ft / 305 m 0 ft / 0 m
30 148 ft / 45 m 11,138 ft / 3,395 m 302.03° 297.31° Asphalt 1,312 ft / 400 m 0 ft / 0 m

Approach Navaids

Runway Type Ident Frequency Range Bearing (true) Bearing (mag) Slope Elevation
12 Localiser YUB 110.30 MHz 25 nm / 46 km 121.92° 117.20° - 315 ft / 96 m (AMSL)
12 Glidescope YUB 110.30 MHz 25 nm / 46 km 121.92° 117.20° 3.00° 305 ft / 93 m (AMSL)
30 Localiser YBE 109.90 MHz 25 nm / 46 km 301.94° 297.22° - 298 ft / 91 m (AMSL)
30 Glidescope YBE 109.90 MHz 25 nm / 46 km 301.94° 297.22° 3.00° 328 ft / 100 m (AMSL)

Popular Alternatives